sensor_id;sensor_type;location;lat;lon;timestamp;pressure;altitude;pressure_sealevel;temperature;humidity
55070;BME280;40967;52.070;8.596;2022-11-18T00:01:18;98676.50;;;7.63;100.00
55070;BME280;40967;52.070;8.596;2022-11-18T00:03:44;98686.22;;;7.64;100.00
55070;BME280;40967;52.070;8.596;2022-11-18T00:06:12;98685.09;;;7.65;100.00
55070;BME280;40967;52.070;8.596;2022-11-18T00:08:38;98670.13;;;7.59;100.00
55070;BME280;40967;52.070;8.596;2022-11-18T00:11:08;98673.59;;;7.59;100.00
55070;BME280;40967;52.070;8.596;2022-11-18T00:13:36;98681.22;;;7.57;100.00
55070;BME280;40967;52.070;8.596;2022-11-18T00:16:20;98680.09;;;7.58;100.00
55070;BME280;40967;52.070;8.596;2022-11-18T00:18:46;98690.09;;;7.58;100.00
55070;BME280;40967;52.070;8.596;2022-11-18T00:21:11;98686.94;;;7.51;100.00
55070;BME280;40967;52.070;8.596;2022-11-18T00:23:38;98696.06;;;7.55;100.00
55070;BME280;40967;52.070;8.596;2022-11-18T00:26:13;98695.84;;;7.51;100.00
55070;BME280;40967;52.070;8.596;2022-11-18T00:28:39;98693.47;;;7.50;100.00
55070;BME280;40967;52.070;8.596;2022-11-18T00:31:08;98700.75;;;7.49;100.00
55070;BME280;40967;52.070;8.596;2022-11-18T00:33:33;98696.44;;;7.48;100.00
55070;BME280;40967;52.070;8.596;2022-11-18T00:36:02;98692.81;;;7.39;100.00
55070;BME280;40967;52.070;8.596;2022-11-18T00:38:28;98704.63;;;7.43;100.00
55070;BME280;40967;52.070;8.596;2022-11-18T00:43:25;98704.97;;;7.37;100.00
55070;BME280;40967;52.070;8.596;2022-11-18T00:45:50;98713.38;;;7.35;100.00
55070;BME280;40967;52.070;8.596;2022-11-18T00:48:16;98707.19;;;7.35;100.00
55070;BME280;40967;52.070;8.596;2022-11-18T00:50:49;98708.84;;;7.31;100.00
55070;BME280;40967;52.070;8.596;2022-11-18T00:53:15;98709.44;;;7.28;100.00
55070;BME280;40967;52.070;8.596;2022-11-18T00:55:41;98710.31;;;7.23;100.00
55070;BME280;40967;52.070;8.596;2022-11-18T00:58:06;98709.56;;;7.18;100.00
55070;BME280;40967;52.070;8.596;2022-11-18T01:00:31;98717.16;;;7.16;100.00
55070;BME280;40967;52.070;8.596;2022-11-18T01:02:57;98720.66;;;7.16;100.00
55070;BME280;40967;52.070;8.596;2022-11-18T01:05:22;98713.44;;;7.12;100.00
55070;BME280;40967;52.070;8.596;2022-11-18T01:07:48;98715.03;;;7.13;100.00
55070;BME280;40967;52.070;8.596;2022-11-18T01:10:13;98710.53;;;7.08;100.00
55070;BME280;40967;52.070;8.596;2022-11-18T01:12:38;98725.03;;;7.12;100.00
55070;BME280;40967;52.070;8.596;2022-11-18T01:15:22;98714.09;;;7.04;100.00
55070;BME280;40967;52.070;8.596;2022-11-18T01:17:47;98723.78;;;7.05;100.00
55070;BME280;40967;52.070;8.596;2022-11-18T01:20:14;98735.59;;;7.09;100.00
55070;BME280;40967;52.070;8.596;2022-11-18T01:22:40;98725.75;;;6.99;100.00
55070;BME280;40967;52.070;8.596;2022-11-18T01:25:05;98738.63;;;7.02;100.00
55070;BME280;40967;52.070;8.596;2022-11-18T01:27:31;98740.63;;;6.97;100.00
55070;BME280;40967;52.070;8.596;2022-11-18T01:29:56;98751.41;;;6.97;100.00
55070;BME280;40967;52.070;8.596;2022-11-18T01:32:21;98754.88;;;6.97;100.00
55070;BME280;40967;52.070;8.596;2022-11-18T01:34:47;98756.78;;;6.97;100.00
55070;BME280;40967;52.070;8.596;2022-11-18T01:37:12;98756.03;;;6.91;100.00
55070;BME280;40967;52.070;8.596;2022-11-18T01:39:38;98758.97;;;6.95;100.00
55070;BME280;40967;52.070;8.596;2022-11-18T01:42:03;98759.53;;;6.91;100.00
55070;BME280;40967;52.070;8.596;2022-11-18T01:47:32;98766.84;;;6.91;100.00
55070;BME280;40967;52.070;8.596;2022-11-18T01:50:00;98766.59;;;6.87;100.00
55070;BME280;40967;52.070;8.596;2022-11-18T01:52:27;98766.03;;;6.90;100.00
55070;BME280;40967;52.070;8.596;2022-11-18T01:54:56;98770.28;;;6.97;100.00
55070;BME280;40967;52.070;8.596;2022-11-18T01:57:23;98778.06;;;6.98;100.00
55070;BME280;40967;52.070;8.596;2022-11-18T01:59:54;98775.38;;;6.98;100.00
55070;BME280;40967;52.070;8.596;2022-11-18T02:02:22;98783.16;;;7.00;100.00
55070;BME280;40967;52.070;8.596;2022-11-18T02:04:50;98774.28;;;6.99;100.00
55070;BME280;40967;52.070;8.596;2022-11-18T02:07:19;98782.34;;;6.99;100.00
55070;BME280;40967;52.070;8.596;2022-11-18T02:09:45;98775.66;;;6.97;100.00
55070;BME280;40967;52.070;8.596;2022-11-18T02:12:11;98772.69;;;6.98;100.00
55070;BME280;40967;52.070;8.596;2022-11-18T02:14:42;98787.47;;;7.01;100.00
55070;BME280;40967;52.070;8.596;2022-11-18T02:30:31;98788.03;;;6.98;100.00
55070;BME280;40967;52.070;8.596;2022-11-18T02:33:06;98793.38;;;7.03;100.00
55070;BME280;40967;52.070;8.596;2022-11-18T02:35:39;98803.34;;;7.02;100.00
55070;BME280;40967;52.070;8.596;2022-11-18T02:38:14;98778.97;;;6.88;100.00
55070;BME280;40967;52.070;8.596;2022-11-18T02:40:48;98786.16;;;6.98;100.00
55070;BME280;40967;52.070;8.596;2022-11-18T02:43:23;98797.09;;;7.07;100.00
55070;BME280;40967;52.070;8.596;2022-11-18T02:45:54;98804.09;;;7.08;100.00
55070;BME280;40967;52.070;8.596;2022-11-18T02:48:25;98803.09;;;7.04;100.00
55070;BME280;40967;52.070;8.596;2022-11-18T02:50:54;98813.81;;;7.09;100.00
55070;BME280;40967;52.070;8.596;2022-11-18T02:53:20;98811.59;;;7.11;100.00
55070;BME280;40967;52.070;8.596;2022-11-18T02:55:48;98814.28;;;7.11;100.00
55070;BME280;40967;52.070;8.596;2022-11-18T02:58:16;98810.88;;;7.05;100.00
55070;BME280;40967;52.070;8.596;2022-11-18T03:00:43;98815.91;;;7.12;100.00
55070;BME280;40967;52.070;8.596;2022-11-18T03:11:22;98811.88;;;7.09;100.00
55070;BME280;40967;52.070;8.596;2022-11-18T03:14:15;98825.06;;;7.16;100.00
55070;BME280;40967;52.070;8.596;2022-11-18T03:19:33;98821.59;;;7.10;100.00
55070;BME280;40967;52.070;8.596;2022-11-18T03:25:18;98832.56;;;7.19;100.00
55070;BME280;40967;52.070;8.596;2022-11-18T03:27:52;98835.03;;;7.15;100.00
55070;BME280;40967;52.070;8.596;2022-11-18T03:30:20;98840.88;;;7.22;100.00
55070;BME280;40967;52.070;8.596;2022-11-18T03:32:56;98833.84;;;7.21;100.00
55070;BME280;40967;52.070;8.596;2022-11-18T03:35:26;98820.72;;;7.15;100.00
55070;BME280;40967;52.070;8.596;2022-11-18T03:38:15;98837.13;;;7.18;100.00
55070;BME280;40967;52.070;8.596;2022-11-18T03:40:46;98838.19;;;7.22;100.00
55070;BME280;40967;52.070;8.596;2022-11-18T03:43:23;98844.63;;;7.26;100.00
55070;BME280;40967;52.070;8.596;2022-11-18T03:46:17;98843.81;;;7.26;100.00
55070;BME280;40967;52.070;8.596;2022-11-18T03:48:43;98846.34;;;7.17;100.00
55070;BME280;40967;52.070;8.596;2022-11-18T03:51:17;98845.16;;;7.23;100.00
55070;BME280;40967;52.070;8.596;2022-11-18T03:53:51;98844.41;;;7.18;100.00
55070;BME280;40967;52.070;8.596;2022-11-18T03:56:21;98849.25;;;7.21;100.00
55070;BME280;40967;52.070;8.596;2022-11-18T03:58:54;98849.31;;;7.16;100.00
55070;BME280;40967;52.070;8.596;2022-11-18T04:04:08;98858.13;;;7.21;100.00
55070;BME280;40967;52.070;8.596;2022-11-18T04:06:42;98868.91;;;7.21;100.00
55070;BME280;40967;52.070;8.596;2022-11-18T04:09:34;98859.53;;;7.19;100.00
55070;BME280;40967;52.070;8.596;2022-11-18T04:12:05;98871.91;;;7.20;100.00
55070;BME280;40967;52.070;8.596;2022-11-18T04:14:37;98873.00;;;7.19;100.00
55070;BME280;40967;52.070;8.596;2022-11-18T04:17:11;98880.28;;;7.18;100.00
55070;BME280;40967;52.070;8.596;2022-11-18T04:19:38;98879.47;;;7.18;100.00
55070;BME280;40967;52.070;8.596;2022-11-18T04:22:04;98884.88;;;7.18;100.00
55070;BME280;40967;52.070;8.596;2022-11-18T04:24:30;98875.25;;;7.12;100.00
55070;BME280;40967;52.070;8.596;2022-11-18T04:26:55;98874.91;;;7.18;100.00
55070;BME280;40967;52.070;8.596;2022-11-18T04:29:20;98879.25;;;7.14;100.00
55070;BME280;40967;52.070;8.596;2022-11-18T04:31:46;98866.63;;;7.10;100.00
55070;BME280;40967;52.070;8.596;2022-11-18T04:34:11;98887.31;;;7.19;100.00
55070;BME280;40967;52.070;8.596;2022-11-18T04:36:36;98892.13;;;7.22;100.00
55070;BME280;40967;52.070;8.596;2022-11-18T04:39:02;98891.31;;;7.22;100.00
55070;BME280;40967;52.070;8.596;2022-11-18T04:41:27;98891.84;;;7.24;100.00
55070;BME280;40967;52.070;8.596;2022-11-18T04:44:11;98903.66;;;7.28;100.00
55070;BME280;40967;52.070;8.596;2022-11-18T04:46:41;98902.56;;;7.29;100.00
55070;BME280;40967;52.070;8.596;2022-11-18T04:49:10;98897.16;;;7.29;100.00
55070;BME280;40967;52.070;8.596;2022-11-18T04:51:37;98904.38;;;7.33;100.00
55070;BME280;40967;52.070;8.596;2022-11-18T04:54:03;98906.81;;;7.35;100.00
55070;BME280;40967;52.070;8.596;2022-11-18T04:56:29;98902.72;;;7.37;100.00
55070;BME280;40967;52.070;8.596;2022-11-18T04:58:55;98906.00;;;7.34;100.00
55070;BME280;40967;52.070;8.596;2022-11-18T05:01:20;98907.59;;;7.35;100.00
55070;BME280;40967;52.070;8.596;2022-11-18T05:03:46;98913.53;;;7.37;100.00
55070;BME280;40967;52.070;8.596;2022-11-18T05:06:11;98914.03;;;7.39;100.00
55070;BME280;40967;52.070;8.596;2022-11-18T05:08:36;98923.72;;;7.40;100.00
55070;BME280;40967;52.070;8.596;2022-11-18T05:11:05;98935.00;;;7.47;100.00
55070;BME280;40967;52.070;8.596;2022-11-18T05:13:50;98923.69;;;7.45;100.00
55070;BME280;40967;52.070;8.596;2022-11-18T05:16:15;98925.88;;;7.43;100.00
55070;BME280;40967;52.070;8.596;2022-11-18T05:18:41;98937.13;;;7.50;100.00
55070;BME280;40967;52.070;8.596;2022-11-18T05:21:06;98933.34;;;7.51;100.00
55070;BME280;40967;52.070;8.596;2022-11-18T05:23:32;98930.94;;;7.50;100.00
55070;BME280;40967;52.070;8.596;2022-11-18T05:26:02;98939.53;;;7.52;100.00
55070;BME280;40967;52.070;8.596;2022-11-18T05:28:27;98938.22;;;7.49;100.00
55070;BME280;40967;52.070;8.596;2022-11-18T05:30:53;98935.00;;;7.47;100.00
55070;BME280;40967;52.070;8.596;2022-11-18T05:33:18;98938.72;;;7.51;100.00
55070;BME280;40967;52.070;8.596;2022-11-18T05:35:43;98948.94;;;7.54;100.00
55070;BME280;40967;52.070;8.596;2022-11-18T05:38:09;98944.13;;;7.51;100.00
55070;BME280;40967;52.070;8.596;2022-11-18T05:40:34;98956.19;;;7.59;100.00
55070;BME280;40967;52.070;8.596;2022-11-18T05:42:59;98955.44;;;7.53;100.00
55070;BME280;40967;52.070;8.596;2022-11-18T05:45:39;98965.06;;;7.59;100.00
55070;BME280;40967;52.070;8.596;2022-11-18T05:48:06;98967.50;;;7.61;100.00
55070;BME280;40967;52.070;8.596;2022-11-18T05:50:37;98973.41;;;7.63;100.00
55070;BME280;40967;52.070;8.596;2022-11-18T05:53:03;98976.09;;;7.63;100.00
55070;BME280;40967;52.070;8.596;2022-11-18T05:55:50;98978.25;;;7.66;100.00
55070;BME280;40967;52.070;8.596;2022-11-18T05:58:34;98965.81;;;7.65;100.00
55070;BME280;40967;52.070;8.596;2022-11-18T06:01:18;98966.41;;;7.62;100.00
55070;BME280;40967;52.070;8.596;2022-11-18T06:03:45;98965.53;;;7.66;100.00
55070;BME280;40967;52.070;8.596;2022-11-18T06:06:12;98960.47;;;7.60;100.00
55070;BME280;40967;52.070;8.596;2022-11-18T06:08:44;98962.91;;;7.61;100.00
55070;BME280;40967;52.070;8.596;2022-11-18T06:11:14;98978.78;;;7.63;100.00
55070;BME280;40967;52.070;8.596;2022-11-18T06:13:56;98982.00;;;7.65;100.00
55070;BME280;40967;52.070;8.596;2022-11-18T06:16:28;98992.81;;;7.65;100.00
55070;BME280;40967;52.070;8.596;2022-11-18T06:18:55;98977.78;;;7.59;100.00
55070;BME280;40967;52.070;8.596;2022-11-18T06:21:21;98993.63;;;7.65;100.00
55070;BME280;40967;52.070;8.596;2022-11-18T06:23:47;98995.00;;;7.63;100.00
55070;BME280;40967;52.070;8.596;2022-11-18T06:26:14;98997.69;;;7.63;100.00
55070;BME280;40967;52.070;8.596;2022-11-18T06:28:41;99005.25;;;7.66;100.00
55070;BME280;40967;52.070;8.596;2022-11-18T06:31:07;99003.59;;;7.65;100.00
55070;BME280;40967;52.070;8.596;2022-11-18T06:33:32;98988.34;;;7.55;100.00
55070;BME280;40967;52.070;8.596;2022-11-18T06:35:58;99001.44;;;7.67;100.00
55070;BME280;40967;52.070;8.596;2022-11-18T06:38:23;99002.81;;;7.64;100.00
55070;BME280;40967;52.070;8.596;2022-11-18T06:40:49;99006.88;;;7.62;100.00
55070;BME280;40967;52.070;8.596;2022-11-18T06:43:15;99015.44;;;7.69;100.00
55070;BME280;40967;52.070;8.596;2022-11-18T06:46:12;99017.34;;;7.68;100.00
55070;BME280;40967;52.070;8.596;2022-11-18T06:48:56;99016.31;;;7.64;100.00
55070;BME280;40967;52.070;8.596;2022-11-18T06:51:22;99027.38;;;7.63;100.00
55070;BME280;40967;52.070;8.596;2022-11-18T06:53:48;99040.84;;;7.68;100.00
55070;BME280;40967;52.070;8.596;2022-11-18T06:56:14;99034.13;;;7.65;100.00
55070;BME280;40967;52.070;8.596;2022-11-18T06:58:40;99037.63;;;7.66;100.00
55070;BME280;40967;52.070;8.596;2022-11-18T07:03:40;99051.88;;;7.71;100.00
55070;BME280;40967;52.070;8.596;2022-11-18T07:06:06;99065.59;;;7.75;100.00
55070;BME280;40967;52.070;8.596;2022-11-18T07:08:34;99074.50;;;7.75;100.00
55070;BME280;40967;52.070;8.596;2022-11-18T07:11:01;99077.47;;;7.74;100.00
55070;BME280;40967;52.070;8.596;2022-11-18T07:13:26;99072.66;;;7.71;100.00
55070;BME280;40967;52.070;8.596;2022-11-18T07:15:51;99072.94;;;7.69;100.00
55070;BME280;40967;52.070;8.596;2022-11-18T07:18:17;99089.09;;;7.74;100.00
55070;BME280;40967;52.070;8.596;2022-11-18T07:20:42;99099.91;;;7.74;100.00
55070;BME280;40967;52.070;8.596;2022-11-18T07:23:08;99102.31;;;7.76;100.00
55070;BME280;40967;52.070;8.596;2022-11-18T07:25:33;99092.38;;;7.71;100.00
55070;BME280;40967;52.070;8.596;2022-11-18T07:27:58;99097.97;;;7.75;100.00
55070;BME280;40967;52.070;8.596;2022-11-18T07:30:24;99096.16;;;7.70;100.00
55070;BME280;40967;52.070;8.596;2022-11-18T07:32:49;99108.00;;;7.74;100.00
55070;BME280;40967;52.070;8.596;2022-11-18T07:35:14;99111.22;;;7.76;100.00
55070;BME280;40967;52.070;8.596;2022-11-18T07:37:42;99115.28;;;7.74;100.00
55070;BME280;40967;52.070;8.596;2022-11-18T07:40:08;99112.56;;;7.74;100.00
55070;BME280;40967;52.070;8.596;2022-11-18T07:42:33;99109.13;;;7.68;100.00
55070;BME280;40967;52.070;8.596;2022-11-18T07:45:09;99108.81;;;7.70;100.00
55070;BME280;40967;52.070;8.596;2022-11-18T07:47:35;99112.28;;;7.75;100.00
55070;BME280;40967;52.070;8.596;2022-11-18T07:50:00;99117.16;;;7.73;100.00
55070;BME280;40967;52.070;8.596;2022-11-18T07:52:26;99125.78;;;7.75;100.00
55070;BME280;40967;52.070;8.596;2022-11-18T07:54:51;99131.72;;;7.77;100.00
55070;BME280;40967;52.070;8.596;2022-11-18T07:57:16;99123.03;;;7.80;100.00
55070;BME280;40967;52.070;8.596;2022-11-18T07:59:42;99131.72;;;7.77;100.00
55070;BME280;40967;52.070;8.596;2022-11-18T08:02:10;99124.72;;;7.76;100.00
55070;BME280;40967;52.070;8.596;2022-11-18T08:04:36;99134.38;;;7.82;100.00
55070;BME280;40967;52.070;8.596;2022-11-18T08:07:01;99128.19;;;7.77;100.00
55070;BME280;40967;52.070;8.596;2022-11-18T08:09:27;99124.44;;;7.78;100.00
55070;BME280;40967;52.070;8.596;2022-11-18T08:11:52;99150.28;;;7.84;100.00
55070;BME280;40967;52.070;8.596;2022-11-18T08:14:17;99141.41;;;7.83;100.00
55070;BME280;40967;52.070;8.596;2022-11-18T08:16:43;99141.66;;;7.82;100.00
55070;BME280;40967;52.070;8.596;2022-11-18T08:19:08;99135.47;;;7.81;100.00
55070;BME280;40967;52.070;8.596;2022-11-18T08:21:34;99155.69;;;7.84;100.00
55070;BME280;40967;52.070;8.596;2022-11-18T08:23:59;99136.81;;;7.79;100.00
55070;BME280;40967;52.070;8.596;2022-11-18T08:26:25;99157.31;;;7.85;100.00
55070;BME280;40967;52.070;8.596;2022-11-18T08:28:51;99149.75;;;7.82;100.00
55070;BME280;40967;52.070;8.596;2022-11-18T08:31:20;99144.63;;;7.80;100.00
55070;BME280;40967;52.070;8.596;2022-11-18T08:33:46;99153.56;;;7.81;100.00
55070;BME280;40967;52.070;8.596;2022-11-18T08:36:17;99156.19;;;7.86;100.00
55070;BME280;40967;52.070;8.596;2022-11-18T08:38:45;99154.06;;;7.83;100.00
55070;BME280;40967;52.070;8.596;2022-11-18T08:41:12;99152.97;;;7.84;99.98
55070;BME280;40967;52.070;8.596;2022-11-18T08:43:38;99159.19;;;7.84;99.77
55070;BME280;40967;52.070;8.596;2022-11-18T08:46:04;99160.78;;;7.85;99.66
55070;BME280;40967;52.070;8.596;2022-11-18T08:48:29;99163.00;;;7.83;99.49
55070;BME280;40967;52.070;8.596;2022-11-18T08:50:56;99171.34;;;7.87;99.56
55070;BME280;40967;52.070;8.596;2022-11-18T08:53:22;99170.81;;;7.85;99.18
55070;BME280;40967;52.070;8.596;2022-11-18T08:55:54;99180.50;;;7.86;99.37
55070;BME280;40967;52.070;8.596;2022-11-18T08:58:20;99182.97;;;7.82;98.88
55070;BME280;40967;52.070;8.596;2022-11-18T09:00:45;99190.78;;;7.84;98.89
55070;BME280;40967;52.070;8.596;2022-11-18T09:03:10;99184.34;;;7.80;98.60
55070;BME280;40967;52.070;8.596;2022-11-18T09:05:36;99182.19;;;7.77;99.05
55070;BME280;40967;52.070;8.596;2022-11-18T09:08:01;99193.53;;;7.79;98.72
55070;BME280;40967;52.070;8.596;2022-11-18T09:10:27;99194.06;;;7.81;98.07
55070;BME280;40967;52.070;8.596;2022-11-18T09:12:52;99187.06;;;7.75;98.52
55070;BME280;40967;52.070;8.596;2022-11-18T09:15:18;99197.09;;;7.74;98.11
55070;BME280;40967;52.070;8.596;2022-11-18T09:17:43;99206.22;;;7.78;98.26
55070;BME280;40967;52.070;8.596;2022-11-18T09:20:09;99212.72;;;7.77;97.57
55070;BME280;40967;52.070;8.596;2022-11-18T09:22:35;99211.38;;;7.75;97.59
55070;BME280;40967;52.070;8.596;2022-11-18T09:25:01;99213.84;;;7.71;97.90
55070;BME280;40967;52.070;8.596;2022-11-18T09:27:27;99210.91;;;7.68;97.58
55070;BME280;40967;52.070;8.596;2022-11-18T09:29:52;99218.72;;;7.69;97.52
55070;BME280;40967;52.070;8.596;2022-11-18T09:32:17;99214.16;;;7.65;97.92
55070;BME280;40967;52.070;8.596;2022-11-18T09:34:43;99207.25;;;7.54;97.46
55070;BME280;40967;52.070;8.596;2022-11-18T09:37:09;99238.22;;;7.61;97.28
55070;BME280;40967;52.070;8.596;2022-11-18T09:39:34;99241.47;;;7.58;97.98
55070;BME280;40967;52.070;8.596;2022-11-18T09:42:13;99239.31;;;7.60;97.81
55070;BME280;40967;52.070;8.596;2022-11-18T09:45:02;99236.59;;;7.60;97.99
55070;BME280;40967;52.070;8.596;2022-11-18T09:47:32;99240.38;;;7.59;97.47
55070;BME280;40967;52.070;8.596;2022-11-18T09:50:09;99243.06;;;7.59;97.79
55070;BME280;40967;52.070;8.596;2022-11-18T09:52:45;99246.59;;;7.60;97.29
55070;BME280;40967;52.070;8.596;2022-11-18T09:55:15;99247.13;;;7.62;97.39
55070;BME280;40967;52.070;8.596;2022-11-18T09:57:50;99247.38;;;7.65;97.10
55070;BME280;40967;52.070;8.596;2022-11-18T10:00:19;99254.13;;;7.63;96.75
55070;BME280;40967;52.070;8.596;2022-11-18T10:03:10;99248.47;;;7.59;96.53
55070;BME280;40967;52.070;8.596;2022-11-18T10:11:24;99262.56;;;7.51;96.98
55070;BME280;40967;52.070;8.596;2022-11-18T10:19:26;99281.75;;;7.50;97.35
55070;BME280;40967;52.070;8.596;2022-11-18T10:22:11;99276.91;;;7.47;97.28
55070;BME280;40967;52.070;8.596;2022-11-18T10:24:42;99285.53;;;7.49;97.47
55070;BME280;40967;52.070;8.596;2022-11-18T10:27:12;99285.81;;;7.47;97.24
55070;BME280;40967;52.070;8.596;2022-11-18T10:29:39;99282.06;;;7.43;97.26
55070;BME280;40967;52.070;8.596;2022-11-18T10:32:11;99288.50;;;7.47;97.96
55070;BME280;40967;52.070;8.596;2022-11-18T10:37:25;99297.13;;;7.49;97.69
55070;BME280;40967;52.070;8.596;2022-11-18T10:39:56;99299.28;;;7.47;98.21
55070;BME280;40967;52.070;8.596;2022-11-18T10:44:54;99296.59;;;7.47;97.86
55070;BME280;40967;52.070;8.596;2022-11-18T10:49:45;99309.28;;;7.52;98.12
55070;BME280;40967;52.070;8.596;2022-11-18T10:52:12;99311.16;;;7.51;98.12
55070;BME280;40967;52.070;8.596;2022-11-18T10:54:38;99304.69;;;7.47;98.36
55070;BME280;40967;52.070;8.596;2022-11-18T10:59:40;99317.44;;;7.42;97.74
55070;BME280;40967;52.070;8.596;2022-11-18T11:04:41;99285.69;;;7.19;97.78
55070;BME280;40967;52.070;8.596;2022-11-18T11:07:33;99305.06;;;7.31;98.08
55070;BME280;40967;52.070;8.596;2022-11-18T11:12:35;99315.03;;;7.30;97.12
55070;BME280;40967;52.070;8.596;2022-11-18T11:17:55;99321.00;;;7.27;97.26
55070;BME280;40967;52.070;8.596;2022-11-18T11:20:56;99319.13;;;7.23;96.78
55070;BME280;40967;52.070;8.596;2022-11-18T11:23:22;99338.78;;;7.28;96.54
55070;BME280;40967;52.070;8.596;2022-11-18T11:26:02;99341.47;;;7.28;97.03
55070;BME280;40967;52.070;8.596;2022-11-18T11:28:38;99336.38;;;7.27;96.55
55070;BME280;40967;52.070;8.596;2022-11-18T11:31:19;99331.81;;;7.22;96.41
55070;BME280;40967;52.070;8.596;2022-11-18T11:37:12;99340.19;;;7.21;95.96
55070;BME280;40967;52.070;8.596;2022-11-18T11:40:01;99337.75;;;7.14;95.67
55070;BME280;40967;52.070;8.596;2022-11-18T11:42:47;99346.38;;;7.16;96.32
55070;BME280;40967;52.070;8.596;2022-11-18T11:45:23;99340.47;;;7.09;96.95
55070;BME280;40967;52.070;8.596;2022-11-18T11:51:29;99360.72;;;7.12;96.16
55070;BME280;40967;52.070;8.596;2022-11-18T11:53:47;99352.38;;;7.08;96.53
55070;BME280;40967;52.070;8.596;2022-11-18T11:56:25;99365.31;;;7.06;96.87
55070;BME280;40967;52.070;8.596;2022-11-18T12:06:53;99373.41;;;7.01;96.74
55070;BME280;40967;52.070;8.596;2022-11-18T12:14:59;99363.19;;;6.98;96.44
55070;BME280;40967;52.070;8.596;2022-11-18T12:17:35;99376.94;;;6.97;95.59
55070;BME280;40967;52.070;8.596;2022-11-18T12:23:39;99381.00;;;6.89;96.08
55070;BME280;40967;52.070;8.596;2022-11-18T12:26:07;99368.88;;;6.81;96.20
55070;BME280;40967;52.070;8.596;2022-11-18T12:28:41;99384.53;;;6.84;95.80
55070;BME280;40967;52.070;8.596;2022-11-18T12:33:44;99386.69;;;6.77;95.32
55070;BME280;40967;52.070;8.596;2022-11-18T12:38:53;99389.63;;;6.76;95.83
55070;BME280;40967;52.070;8.596;2022-11-18T12:44:26;99395.31;;;6.74;95.31
55070;BME280;40967;52.070;8.596;2022-11-18T12:46:56;99396.41;;;6.68;95.19
55070;BME280;40967;52.070;8.596;2022-11-18T12:51:49;99397.19;;;6.59;95.32
55070;BME280;40967;52.070;8.596;2022-11-18T12:56:54;99393.97;;;6.52;94.74
55070;BME280;40967;52.070;8.596;2022-11-18T12:59:35;99383.47;;;6.40;95.02
55070;BME280;40967;52.070;8.596;2022-11-18T13:02:13;99408.81;;;6.54;95.05
55070;BME280;40967;52.070;8.596;2022-11-18T13:04:39;99410.41;;;6.50;95.23
55070;BME280;40967;52.070;8.596;2022-11-18T13:07:10;99411.22;;;6.51;94.64
55070;BME280;40967;52.070;8.596;2022-11-18T13:09:59;99415.81;;;6.45;94.54
55070;BME280;40967;52.070;8.596;2022-11-18T13:12:28;99407.44;;;6.42;95.21
55070;BME280;40967;52.070;8.596;2022-11-18T13:14:54;99410.41;;;6.40;94.89
55070;BME280;40967;52.070;8.596;2022-11-18T13:17:40;99424.44;;;6.37;94.40
55070;BME280;40967;52.070;8.596;2022-11-18T13:20:31;99394.50;;;6.24;94.47
55070;BME280;40967;52.070;8.596;2022-11-18T13:25:53;99425.22;;;6.33;94.33
55070;BME280;40967;52.070;8.596;2022-11-18T13:28:31;99426.59;;;6.30;94.29
55070;BME280;40967;52.070;8.596;2022-11-18T13:33:38;99427.91;;;6.23;94.76
55070;BME280;40967;52.070;8.596;2022-11-18T13:36:15;99438.97;;;6.26;94.03
55070;BME280;40967;52.070;8.596;2022-11-18T13:38:57;99431.69;;;6.22;93.96
55070;BME280;40967;52.070;8.596;2022-11-18T13:41:23;99431.13;;;6.15;94.33
55070;BME280;40967;52.070;8.596;2022-11-18T13:46:38;99417.13;;;5.98;94.08
55070;BME280;40967;52.070;8.596;2022-11-18T13:49:05;99448.63;;;6.12;93.99
55070;BME280;40967;52.070;8.596;2022-11-18T13:51:30;99449.97;;;6.10;94.45
55070;BME280;40967;52.070;8.596;2022-11-18T13:53:57;99445.38;;;6.05;93.71
55070;BME280;40967;52.070;8.596;2022-11-18T13:56:25;99456.69;;;6.07;94.37
55070;BME280;40967;52.070;8.596;2022-11-18T13:58:54;99457.78;;;6.06;93.89
55070;BME280;40967;52.070;8.596;2022-11-18T14:01:28;99462.34;;;6.06;94.00
55070;BME280;40967;52.070;8.596;2022-11-18T14:04:07;99460.44;;;6.01;93.94
55070;BME280;40967;52.070;8.596;2022-11-18T14:06:40;99455.59;;;5.93;94.09
55070;BME280;40967;52.070;8.596;2022-11-18T14:09:25;99452.34;;;5.91;94.11
55070;BME280;40967;52.070;8.596;2022-11-18T14:12:00;99461.50;;;5.90;93.88
55070;BME280;40967;52.070;8.596;2022-11-18T14:14:28;99468.22;;;5.88;94.19
55070;BME280;40967;52.070;8.596;2022-11-18T14:17:47;99472.81;;;5.87;94.05
55070;BME280;40967;52.070;8.596;2022-11-18T14:19:55;99463.06;;;5.81;94.04
55070;BME280;40967;52.070;8.596;2022-11-18T14:22:23;99464.41;;;5.78;93.86
55070;BME280;40967;52.070;8.596;2022-11-18T14:27:33;99484.84;;;5.74;93.14
55070;BME280;40967;52.070;8.596;2022-11-18T14:29:59;99485.59;;;5.70;93.22
55070;BME280;40967;52.070;8.596;2022-11-18T14:32:25;99478.31;;;5.60;94.24
55070;BME280;40967;52.070;8.596;2022-11-18T14:35:00;99491.78;;;5.65;93.43
55070;BME280;40967;52.070;8.596;2022-11-18T14:37:25;99493.38;;;5.66;93.68
55070;BME280;40967;52.070;8.596;2022-11-18T14:39:55;99494.75;;;5.64;93.35
55070;BME280;40967;52.070;8.596;2022-11-18T14:42:21;99493.91;;;5.58;93.06
55070;BME280;40967;52.070;8.596;2022-11-18T14:44:48;99500.09;;;5.59;93.07
55070;BME280;40967;52.070;8.596;2022-11-18T14:47:27;99491.44;;;5.52;92.75
55070;BME280;40967;52.070;8.596;2022-11-18T14:49:53;99494.97;;;5.52;92.86
55070;BME280;40967;52.070;8.596;2022-11-18T14:52:19;99506.25;;;5.54;92.55
55070;BME280;40967;52.070;8.596;2022-11-18T14:54:44;99505.66;;;5.47;92.80
55070;BME280;40967;52.070;8.596;2022-11-18T14:57:13;99512.94;;;5.47;92.65
55070;BME280;40967;52.070;8.596;2022-11-18T14:59:39;99506.44;;;5.38;92.26
55070;BME280;40967;52.070;8.596;2022-11-18T15:02:12;99513.97;;;5.41;92.54
55070;BME280;40967;52.070;8.596;2022-11-18T15:04:38;99519.63;;;5.39;92.27
55070;BME280;40967;52.070;8.596;2022-11-18T15:07:04;99519.59;;;5.34;92.28
55070;BME280;40967;52.070;8.596;2022-11-18T15:09:29;99527.97;;;5.38;92.21
55070;BME280;40967;52.070;8.596;2022-11-18T15:11:54;99522.56;;;5.38;92.32
55070;BME280;40967;52.070;8.596;2022-11-18T15:14:19;99532.50;;;5.37;92.35